createdAt,value
2022-10-07T00:00:34.000Z,50.17
2022-10-07T00:02:58.000Z,47.73
2022-10-07T00:05:24.000Z,49.13
2022-10-07T00:07:51.000Z,48.52
2022-10-07T00:10:18.000Z,42.03
2022-10-07T00:12:43.000Z,40.55
2022-10-07T00:15:09.000Z,44.53
2022-10-07T00:17:34.000Z,44.75
2022-10-07T00:20:00.000Z,43.87
2022-10-07T00:22:26.000Z,50.83
2022-10-07T00:24:53.000Z,49.45
2022-10-07T00:27:17.000Z,48.93
2022-10-07T00:29:44.000Z,45.37
2022-10-07T00:32:09.000Z,44.53
2022-10-07T00:34:35.000Z,43.17
2022-10-07T00:37:02.000Z,47.1
2022-10-07T00:39:27.000Z,47.13
2022-10-07T00:41:52.000Z,43.78
2022-10-07T00:44:19.000Z,42.45
2022-10-07T00:46:45.000Z,51.83
2022-10-07T00:49:11.000Z,49.93
2022-10-07T00:51:36.000Z,47.67
2022-10-07T00:54:04.000Z,47.23
2022-10-07T00:56:28.000Z,45.92
2022-10-07T00:58:54.000Z,51.7
2022-10-07T01:01:20.000Z,48.42
2022-10-07T01:03:45.000Z,47.3
2022-10-07T01:06:12.000Z,49.27
2022-10-07T01:08:37.000Z,55.07
2022-10-07T01:11:04.000Z,56.9
2022-10-07T01:13:28.000Z,50.07
2022-10-07T01:15:54.000Z,48.7
2022-10-07T01:18:20.000Z,55.6
2022-10-07T01:20:47.000Z,48.35
2022-10-07T01:23:12.000Z,57.03
2022-10-07T01:25:42.000Z,54.65
2022-10-07T01:28:09.000Z,55.83
2022-10-07T01:30:33.000Z,58.77
2022-10-07T01:32:59.000Z,61.92
2022-10-07T01:35:25.000Z,58.42
2022-10-07T01:37:51.000Z,60.87
2022-10-07T01:40:18.000Z,66.87
2022-10-07T01:42:43.000Z,59.53
2022-10-07T01:45:09.000Z,64.87
2022-10-07T01:47:35.000Z,64.9
2022-10-07T01:50:00.000Z,62.23
2022-10-07T01:52:28.000Z,60.3
2022-10-07T01:54:53.000Z,61.75
2022-10-07T01:57:19.000Z,63.63
2022-10-07T01:59:44.000Z,62.1
2022-10-07T02:02:10.000Z,60.58
2022-10-07T02:04:39.000Z,63.7
2022-10-07T02:07:06.000Z,59.88
2022-10-07T02:09:31.000Z,58.75
2022-10-07T02:11:56.000Z,61.8
2022-10-07T02:14:23.000Z,61.8
2022-10-07T02:16:48.000Z,63.7
2022-10-07T02:19:15.000Z,60.05
2022-10-07T02:21:41.000Z,65.32
2022-10-07T02:24:07.000Z,58.47
2022-10-07T02:26:33.000Z,61.02
2022-10-07T02:28:59.000Z,61.5
2022-10-07T02:31:24.000Z,58.28
2022-10-07T02:33:51.000Z,58.65
2022-10-07T02:36:16.000Z,60.3
2022-10-07T02:38:42.000Z,53.97
2022-10-07T02:41:08.000Z,56.8
2022-10-07T02:43:34.000Z,53.33
2022-10-07T02:46:00.000Z,52.03
2022-10-07T02:48:29.000Z,47.43
2022-10-07T02:50:51.000Z,46.63
2022-10-07T02:53:19.000Z,46.92
2022-10-07T02:55:44.000Z,52.23
2022-10-07T02:58:09.000Z,47.45
2022-10-07T03:00:40.000Z,45.85
2022-10-07T03:03:01.000Z,47.67
2022-10-07T03:05:26.000Z,44.15
2022-10-07T03:07:52.000Z,46.25
2022-10-07T03:10:22.000Z,45.08
2022-10-07T03:12:47.000Z,43.98
2022-10-07T03:15:14.000Z,42.75
2022-10-07T03:17:38.000Z,43.8
2022-10-07T03:20:06.000Z,41.43
2022-10-07T03:22:31.000Z,40.88
2022-10-07T03:24:58.000Z,41.28
2022-10-07T03:27:25.000Z,41.97
2022-10-07T03:29:51.000Z,40.55
2022-10-07T03:32:18.000Z,39.53
2022-10-07T03:34:43.000Z,40.45
2022-10-07T03:37:10.000Z,40.28
2022-10-07T03:39:36.000Z,43.65
2022-10-07T03:42:03.000Z,42.62
2022-10-07T03:44:27.000Z,36.95
2022-10-07T03:46:54.000Z,38
2022-10-07T03:49:20.000Z,36.77
2022-10-07T03:51:47.000Z,39.53
2022-10-07T03:54:12.000Z,37.4
2022-10-07T03:56:38.000Z,38.7
2022-10-07T03:59:05.000Z,35.27
2022-10-07T04:01:29.000Z,37.3
2022-10-07T04:03:55.000Z,36.75
2022-10-07T04:06:20.000Z,33.53
2022-10-07T04:08:48.000Z,37.17
2022-10-07T04:11:12.000Z,33.35
2022-10-07T04:13:37.000Z,42.27
2022-10-07T04:16:06.000Z,30.68
2022-10-07T04:18:30.000Z,31.47
2022-10-07T04:20:56.000Z,30.2
2022-10-07T04:23:23.000Z,30.25
2022-10-07T04:25:49.000Z,28.95
2022-10-07T04:28:14.000Z,25.37
2022-10-07T04:30:41.000Z,24.82
2022-10-07T04:33:06.000Z,22.07
2022-10-07T04:35:32.000Z,27.6
2022-10-07T04:38:01.000Z,23.85
2022-10-07T04:40:28.000Z,25.88
2022-10-07T04:42:54.000Z,29.48
2022-10-07T04:45:22.000Z,25.12
2022-10-07T04:47:45.000Z,27.67
2022-10-07T04:50:12.000Z,27.32
2022-10-07T04:52:37.000Z,25.02
2022-10-07T04:55:04.000Z,29.12
2022-10-07T04:57:31.000Z,26.1
2022-10-07T04:59:55.000Z,28.57
2022-10-07T05:02:21.000Z,25.1
2022-10-07T05:04:47.000Z,24.9
2022-10-07T05:07:12.000Z,23.52
2022-10-07T05:09:38.000Z,22.2
2022-10-07T05:12:04.000Z,22.17
2022-10-07T05:14:30.000Z,24.18
2022-10-07T05:16:59.000Z,22.37
2022-10-07T05:19:25.000Z,23.18
2022-10-07T05:21:51.000Z,23.43
2022-10-07T05:24:17.000Z,24.53
2022-10-07T05:26:42.000Z,24.3
2022-10-07T05:29:14.000Z,27.25
2022-10-07T05:31:41.000Z,22.93
2022-10-07T05:34:08.000Z,22.98
2022-10-07T05:36:32.000Z,25.5
2022-10-07T05:38:58.000Z,23.55
2022-10-07T05:41:24.000Z,24.18
2022-10-07T05:43:49.000Z,20.97
2022-10-07T05:46:14.000Z,22.25
2022-10-07T05:48:41.000Z,23.15
2022-10-07T05:51:07.000Z,22.97
2022-10-07T05:53:33.000Z,22.65
2022-10-07T05:56:01.000Z,23.1
2022-10-07T05:58:27.000Z,22.42
2022-10-07T06:00:56.000Z,23.62
2022-10-07T06:03:23.000Z,18.98
2022-10-07T06:11:01.000Z,20.57
2022-10-07T06:13:25.000Z,18.82
2022-10-07T06:15:51.000Z,21.23
2022-10-07T06:18:19.000Z,19.67
2022-10-07T06:20:47.000Z,18.8
2022-10-07T06:23:16.000Z,19.73
2022-10-07T06:28:16.000Z,18.05
2022-10-07T06:30:44.000Z,18.07
2022-10-07T06:33:08.000Z,19.55
2022-10-07T06:35:35.000Z,19.6
2022-10-07T06:38:01.000Z,18.27
2022-10-07T06:40:30.000Z,18.33
2022-10-07T06:42:53.000Z,17.98
2022-10-07T06:45:21.000Z,20.47
2022-10-07T06:50:30.000Z,19.7
2022-10-07T06:52:55.000Z,16.82
2022-10-07T06:55:24.000Z,18.92
2022-10-07T07:00:30.000Z,20.25
2022-10-07T07:02:53.000Z,20.12
2022-10-07T07:05:27.000Z,19.3
2022-10-07T07:07:55.000Z,17.15
2022-10-07T07:10:24.000Z,19.48
2022-10-07T07:15:20.000Z,17.67
2022-10-07T07:17:54.000Z,18.15
2022-10-07T07:25:34.000Z,21.6
2022-10-07T07:27:57.000Z,20.43
2022-10-07T07:30:23.000Z,17.6
2022-10-07T07:32:50.000Z,17.37
2022-10-07T07:35:21.000Z,17.77
2022-10-07T07:37:46.000Z,17.42
2022-10-07T07:40:17.000Z,16.7
2022-10-07T07:42:45.000Z,16.5
2022-10-07T07:45:15.000Z,17
2022-10-07T07:47:47.000Z,17.7
2022-10-07T07:50:17.000Z,15.97
2022-10-07T07:55:12.000Z,16.8
2022-10-07T07:57:48.000Z,17.92
2022-10-07T08:00:26.000Z,17.4
2022-10-07T08:02:52.000Z,14.87
2022-10-07T08:05:21.000Z,14.85
2022-10-07T08:07:50.000Z,14.53
2022-10-07T08:10:15.000Z,14.83
2022-10-07T08:12:43.000Z,15.07
2022-10-07T08:15:09.000Z,18.23
2022-10-07T08:17:38.000Z,15.5
2022-10-07T08:20:08.000Z,18.07
2022-10-07T08:22:36.000Z,17.17
2022-10-07T08:25:04.000Z,17.57
2022-10-07T08:27:31.000Z,18.73
2022-10-07T08:29:56.000Z,18.4
2022-10-07T08:32:27.000Z,16.02
2022-10-07T08:34:55.000Z,15.6
2022-10-07T08:37:24.000Z,15.17
2022-10-07T08:39:52.000Z,18.2
2022-10-07T08:42:24.000Z,15.68
2022-10-07T08:44:49.000Z,14.38
2022-10-07T08:47:22.000Z,17.25
2022-10-07T08:49:54.000Z,15.2
2022-10-07T08:52:21.000Z,15.03
2022-10-07T08:54:50.000Z,14.15
2022-10-07T08:57:16.000Z,11.73
2022-10-07T08:59:41.000Z,12.82
2022-10-07T09:02:17.000Z,12.47
2022-10-07T09:04:48.000Z,13.22
2022-10-07T09:07:16.000Z,11.12
2022-10-07T09:09:42.000Z,11.25
2022-10-07T09:12:12.000Z,11.75
2022-10-07T09:14:37.000Z,10.88
2022-10-07T09:17:03.000Z,10.53
2022-10-07T09:19:30.000Z,10.72
2022-10-07T09:21:57.000Z,11.65
2022-10-07T09:24:27.000Z,10.8
2022-10-07T09:26:56.000Z,10.25
2022-10-07T09:29:21.000Z,11.45
2022-10-07T09:31:47.000Z,10.98
2022-10-07T09:34:19.000Z,10.13
2022-10-07T09:36:49.000Z,11.53
2022-10-07T09:39:15.000Z,11.6
2022-10-07T09:41:47.000Z,12.5
2022-10-07T09:44:16.000Z,11.57
2022-10-07T09:51:55.000Z,15.08
2022-10-07T09:54:17.000Z,10.65
2022-10-07T09:59:20.000Z,14.68
2022-10-07T10:01:49.000Z,13.6
2022-10-07T10:04:24.000Z,13.65
2022-10-07T10:06:53.000Z,16.83
2022-10-07T10:09:24.000Z,16.57
2022-10-07T10:11:51.000Z,15.83
2022-10-07T10:14:24.000Z,15.68
2022-10-07T10:16:53.000Z,18.42
2022-10-07T10:24:30.000Z,18.75
2022-10-07T10:29:23.000Z,20
2022-10-07T10:31:50.000Z,19.87
2022-10-07T10:34:18.000Z,18.87
2022-10-07T10:36:44.000Z,15.23
2022-10-07T10:39:14.000Z,19.4
2022-10-07T10:44:13.000Z,18.73
2022-10-07T10:46:40.000Z,25.37
2022-10-07T10:49:09.000Z,23.95
2022-10-07T10:51:37.000Z,19.17
2022-10-07T10:54:03.000Z,17.97
2022-10-07T10:56:30.000Z,20.97
2022-10-07T10:58:55.000Z,22.27
2022-10-07T11:01:22.000Z,24.07
2022-10-07T11:06:25.000Z,25.6
2022-10-07T11:08:52.000Z,23.1
2022-10-07T11:11:19.000Z,19.45
2022-10-07T11:13:45.000Z,21.3
2022-10-07T11:16:13.000Z,19.63
2022-10-07T11:18:41.000Z,22.07
2022-10-07T11:21:08.000Z,18.82
2022-10-07T11:23:39.000Z,19.42
2022-10-07T11:26:09.000Z,20.25
2022-10-07T11:28:39.000Z,15.65
2022-10-07T11:33:40.000Z,21.07
2022-10-07T11:36:09.000Z,24.1
2022-10-07T11:38:41.000Z,19.25
2022-10-07T11:41:13.000Z,17.05
2022-10-07T11:43:36.000Z,18.35
2022-10-07T11:46:15.000Z,21.62
2022-10-07T11:48:41.000Z,24.25
2022-10-07T11:51:07.000Z,20.72
2022-10-07T11:53:38.000Z,22.03
2022-10-07T11:56:05.000Z,19.87
2022-10-07T11:58:35.000Z,18.92
2022-10-07T12:03:40.000Z,18.48
2022-10-07T12:06:11.000Z,17.87
2022-10-07T12:08:35.000Z,20.92
2022-10-07T12:11:04.000Z,19.6
2022-10-07T12:16:12.000Z,19.32
2022-10-07T12:18:40.000Z,19.3
2022-10-07T12:21:08.000Z,18.47
2022-10-07T12:23:37.000Z,23.67
2022-10-07T12:26:11.000Z,20.97
2022-10-07T12:31:14.000Z,20.55
2022-10-07T12:33:43.000Z,20.6
2022-10-07T12:38:41.000Z,19.82
2022-10-07T12:43:38.000Z,22.42
2022-10-07T12:46:05.000Z,20.72
2022-10-07T12:53:34.000Z,20.52
2022-10-07T12:55:59.000Z,20.05
2022-10-07T12:58:27.000Z,17.23
2022-10-07T13:00:53.000Z,20.6
2022-10-07T13:03:19.000Z,18.8
2022-10-07T13:05:44.000Z,20.63
2022-10-07T13:08:10.000Z,18.57
2022-10-07T13:10:38.000Z,19.97
2022-10-07T13:13:02.000Z,25
2022-10-07T13:15:28.000Z,22
2022-10-07T13:17:54.000Z,21.27
2022-10-07T13:20:21.000Z,23.77
2022-10-07T13:22:46.000Z,22.4
2022-10-07T13:25:16.000Z,22.35
2022-10-07T13:27:41.000Z,23.05
2022-10-07T13:32:35.000Z,23.27
2022-10-07T13:35:04.000Z,23.95
2022-10-07T13:37:28.000Z,22.85
2022-10-07T13:39:55.000Z,23.2
2022-10-07T13:42:23.000Z,25.7
2022-10-07T13:44:46.000Z,23.85
2022-10-07T13:47:13.000Z,28.65
2022-10-07T13:49:39.000Z,22.97
2022-10-07T13:52:08.000Z,23.43
2022-10-07T13:57:01.000Z,25.37
2022-10-07T14:02:02.000Z,24.02
2022-10-07T14:04:27.000Z,27.87
2022-10-07T14:06:54.000Z,29.12
2022-10-07T14:09:20.000Z,24.43
2022-10-07T14:11:56.000Z,25.67
2022-10-07T14:14:12.000Z,22.32
2022-10-07T14:16:38.000Z,20.48
2022-10-07T14:19:07.000Z,21.65
2022-10-07T14:21:31.000Z,21.25
2022-10-07T14:23:59.000Z,22.35
2022-10-07T14:26:25.000Z,23.25
2022-10-07T14:28:54.000Z,20.65
2022-10-07T14:31:21.000Z,19.98
2022-10-07T14:33:47.000Z,25.57
2022-10-07T14:36:14.000Z,17.85
2022-10-07T14:41:07.000Z,17.63
2022-10-07T14:43:31.000Z,16.82
2022-10-07T14:45:58.000Z,16.67
2022-10-07T14:48:27.000Z,17
2022-10-07T14:50:50.000Z,18.32
2022-10-07T14:53:14.000Z,19.25
2022-10-07T14:55:41.000Z,19.13
2022-10-07T14:58:07.000Z,17.73
2022-10-07T15:00:34.000Z,21.23
2022-10-07T15:02:59.000Z,22.22
2022-10-07T15:05:24.000Z,20.7
2022-10-07T15:07:50.000Z,18.25
2022-10-07T15:10:21.000Z,17.48
2022-10-07T15:12:48.000Z,18.23
2022-10-07T15:15:14.000Z,15.6
2022-10-07T15:17:43.000Z,14.98
2022-10-07T15:20:11.000Z,15.43
2022-10-07T15:22:40.000Z,14.6
2022-10-07T15:25:08.000Z,14.73
2022-10-07T15:27:33.000Z,12.8
2022-10-07T15:29:57.000Z,14.98
2022-10-07T15:32:24.000Z,13.28
2022-10-07T15:34:49.000Z,15.48
2022-10-07T15:37:15.000Z,12.15
2022-10-07T15:39:42.000Z,12.33
2022-10-07T15:42:13.000Z,16.93
2022-10-07T15:44:43.000Z,14.33
2022-10-07T15:47:10.000Z,17.07
2022-10-07T15:49:36.000Z,12.63
2022-10-07T15:52:02.000Z,15.63
2022-10-07T15:54:28.000Z,12.9
2022-10-07T15:56:53.000Z,15.1
2022-10-07T15:59:19.000Z,14.23
2022-10-07T16:01:44.000Z,16.42
2022-10-07T16:04:11.000Z,12.63
2022-10-07T16:06:36.000Z,14.27
2022-10-07T16:09:04.000Z,17.15
2022-10-07T16:11:30.000Z,12.35
2022-10-07T16:13:54.000Z,15.4
2022-10-07T16:16:20.000Z,15.55
2022-10-07T16:18:48.000Z,16.7
2022-10-07T16:21:11.000Z,15.88
2022-10-07T16:23:38.000Z,19.12
2022-10-07T16:26:05.000Z,16.4
2022-10-07T16:28:29.000Z,22.95
2022-10-07T16:30:55.000Z,20.88
2022-10-07T16:33:21.000Z,21.33
2022-10-07T16:35:47.000Z,24.07
2022-10-07T16:38:13.000Z,23.67
2022-10-07T16:40:40.000Z,23.18
2022-10-07T16:43:07.000Z,21.52
2022-10-07T16:45:31.000Z,27.4
2022-10-07T16:47:57.000Z,24.6
2022-10-07T16:50:25.000Z,22.6
2022-10-07T16:52:50.000Z,26.6
2022-10-07T16:55:17.000Z,20.88
2022-10-07T16:57:42.000Z,22.05
2022-10-07T17:00:11.000Z,22.95
2022-10-07T17:02:33.000Z,20.4
2022-10-07T17:04:59.000Z,22.1
2022-10-07T17:07:25.000Z,17.87
2022-10-07T17:09:51.000Z,20.17
2022-10-07T17:12:17.000Z,19.27
2022-10-07T17:14:43.000Z,18.67
2022-10-07T17:17:11.000Z,18.12
2022-10-07T17:22:02.000Z,17.62
2022-10-07T17:24:28.000Z,18.73
2022-10-07T17:26:53.000Z,18
2022-10-07T17:29:21.000Z,21
2022-10-07T17:31:48.000Z,22.07
2022-10-07T17:34:13.000Z,21.33
2022-10-07T17:36:39.000Z,24.55
2022-10-07T17:39:05.000Z,27.4
2022-10-07T17:41:46.000Z,25
2022-10-07T17:43:59.000Z,26.55
2022-10-07T17:46:23.000Z,27.7
2022-10-07T17:48:49.000Z,32.93
2022-10-07T17:51:15.000Z,31.1
2022-10-07T17:53:41.000Z,35.23
2022-10-07T17:56:07.000Z,37.93
2022-10-07T17:58:33.000Z,37.88
2022-10-07T18:00:59.000Z,42.33
2022-10-07T18:03:24.000Z,38.83
2022-10-07T18:05:50.000Z,40.55
2022-10-07T18:08:16.000Z,39.48
2022-10-07T18:10:43.000Z,41.77
2022-10-07T18:13:09.000Z,43.95
2022-10-07T18:15:34.000Z,39.27
2022-10-07T18:18:00.000Z,42.43
2022-10-07T18:20:29.000Z,44.42
2022-10-07T18:22:53.000Z,44.27
2022-10-07T18:25:19.000Z,43.53
2022-10-07T18:27:45.000Z,43.25
2022-10-07T18:30:15.000Z,40.92
2022-10-07T18:32:36.000Z,44.47
2022-10-07T18:35:02.000Z,42.85
2022-10-07T18:37:29.000Z,41.55
2022-10-07T18:39:55.000Z,42.23
2022-10-07T18:42:22.000Z,44.05
2022-10-07T18:44:47.000Z,42.73
2022-10-07T18:47:13.000Z,41.5
2022-10-07T18:49:38.000Z,42.13
2022-10-07T18:52:05.000Z,43.25
2022-10-07T18:54:30.000Z,44.27
2022-10-07T18:56:56.000Z,44.03
2022-10-07T18:59:21.000Z,44.48
2022-10-07T19:01:48.000Z,43.02
2022-10-07T19:04:14.000Z,40.7
2022-10-07T19:06:39.000Z,37.63
2022-10-07T19:09:06.000Z,43.3
2022-10-07T19:11:31.000Z,39.67
2022-10-07T19:13:57.000Z,38
2022-10-07T19:16:24.000Z,38.98
2022-10-07T19:18:49.000Z,40.63
2022-10-07T19:21:15.000Z,41.13
2022-10-07T19:23:42.000Z,36.17
2022-10-07T19:26:12.000Z,36.98
2022-10-07T19:28:33.000Z,34.4
2022-10-07T19:30:59.000Z,37.87
2022-10-07T19:33:25.000Z,33.07
2022-10-07T19:35:51.000Z,32.93
2022-10-07T19:38:16.000Z,34.03
2022-10-07T19:40:47.000Z,32.4
2022-10-07T19:43:10.000Z,34.15
2022-10-07T19:45:38.000Z,29.8
2022-10-07T19:48:05.000Z,29.17
2022-10-07T19:50:29.000Z,28.7
2022-10-07T19:52:56.000Z,27.77
2022-10-07T19:55:21.000Z,28.8
2022-10-07T19:57:49.000Z,27.17
2022-10-07T20:02:40.000Z,26.4
2022-10-07T20:05:05.000Z,26.1
2022-10-07T20:07:31.000Z,24.05
2022-10-07T20:09:57.000Z,24.5
2022-10-07T20:12:23.000Z,23.73
2022-10-07T20:14:50.000Z,21.67
2022-10-07T20:17:15.000Z,21.95
2022-10-07T20:19:41.000Z,20.43
2022-10-07T20:22:08.000Z,19.57
2022-10-07T20:26:59.000Z,21.15
2022-10-07T20:29:25.000Z,21.12
2022-10-07T20:31:51.000Z,19.02
2022-10-07T20:34:16.000Z,18.27
2022-10-07T20:36:44.000Z,14.83
2022-10-07T20:39:08.000Z,15.37
2022-10-07T20:41:35.000Z,14.3
2022-10-07T20:44:01.000Z,14.15
2022-10-07T20:46:26.000Z,14.03
2022-10-07T20:48:52.000Z,14.5
2022-10-07T20:51:18.000Z,13.9
2022-10-07T20:53:43.000Z,11.43
2022-10-07T20:56:10.000Z,13.22
2022-10-07T20:58:35.000Z,14.5
2022-10-07T21:01:00.000Z,12.7
2022-10-07T21:03:26.000Z,11.9
2022-10-07T21:05:52.000Z,11.9
2022-10-07T21:08:18.000Z,15.98
2022-10-07T21:10:49.000Z,13.25
2022-10-07T21:13:34.000Z,10.25
2022-10-07T21:15:38.000Z,12.82
2022-10-07T21:18:02.000Z,11.57
2022-10-07T21:20:28.000Z,12.05
2022-10-07T21:22:53.000Z,10.18
2022-10-07T21:25:20.000Z,11.23
2022-10-07T21:27:46.000Z,13.17
2022-10-07T21:30:13.000Z,11.85
2022-10-07T21:32:43.000Z,14.43
2022-10-07T21:35:04.000Z,10.97
2022-10-07T21:37:30.000Z,12.05
2022-10-07T21:39:55.000Z,11.57
2022-10-07T21:42:21.000Z,11.5
2022-10-07T21:44:47.000Z,11.57
2022-10-07T21:47:13.000Z,8.6
2022-10-07T21:49:39.000Z,11.53
2022-10-07T21:52:05.000Z,10.48
2022-10-07T21:54:30.000Z,11.35
2022-10-07T21:56:55.000Z,10.5
2022-10-07T21:59:21.000Z,12.33
2022-10-07T22:01:47.000Z,12.45
2022-10-07T22:04:13.000Z,12.43
2022-10-07T22:06:38.000Z,9.78
2022-10-07T22:09:04.000Z,9.68
2022-10-07T22:11:30.000Z,13.32
2022-10-07T22:13:56.000Z,8.77
2022-10-07T22:16:21.000Z,9.47
2022-10-07T22:18:48.000Z,10.8
2022-10-07T22:21:13.000Z,9.95
2022-10-07T22:23:39.000Z,10.8
2022-10-07T22:26:05.000Z,11.13
2022-10-07T22:28:30.000Z,13.17
2022-10-07T22:30:56.000Z,9.8
2022-10-07T22:33:21.000Z,10.23
2022-10-07T22:35:47.000Z,8.65
2022-10-07T22:38:13.000Z,11.3
2022-10-07T22:40:39.000Z,10.13
2022-10-07T22:43:05.000Z,10.33
2022-10-07T22:45:30.000Z,9
2022-10-07T22:47:56.000Z,10.43
2022-10-07T22:50:23.000Z,10.93
2022-10-07T22:52:49.000Z,11.93
2022-10-07T22:55:14.000Z,9.73
2022-10-07T22:57:39.000Z,10.87
2022-10-07T23:00:10.000Z,10.47
2022-10-07T23:02:31.000Z,10.3
2022-10-07T23:04:56.000Z,12.05
2022-10-07T23:07:22.000Z,12.82
2022-10-07T23:09:48.000Z,12.68
2022-10-07T23:12:15.000Z,12.7
2022-10-07T23:14:41.000Z,12.83
2022-10-07T23:17:05.000Z,13.18
2022-10-07T23:19:31.000Z,14.85
2022-10-07T23:21:58.000Z,14.65
2022-10-07T23:24:23.000Z,14.38
2022-10-07T23:26:49.000Z,20.1
2022-10-07T23:29:14.000Z,16.65
2022-10-07T23:31:40.000Z,13.8
2022-10-07T23:34:07.000Z,16.47
2022-10-07T23:36:32.000Z,15
2022-10-07T23:38:57.000Z,13.6
2022-10-07T23:41:23.000Z,11.2
2022-10-07T23:43:49.000Z,13.08
2022-10-07T23:46:16.000Z,12.13
2022-10-07T23:48:41.000Z,12.7
2022-10-07T23:51:08.000Z,13.2
2022-10-07T23:53:32.000Z,13.35
2022-10-07T23:55:58.000Z,11.85
2022-10-07T23:58:23.000Z,13.6
